createdAt,value
2018-12-20T00:00:54.248Z,1002.92
2018-12-20T00:01:54.204Z,1002.88
2018-12-20T00:02:54.200Z,1002.89
2018-12-20T00:03:54.239Z,1002.85
2018-12-20T00:04:54.167Z,1002.86
2018-12-20T00:05:54.275Z,1002.78
2018-12-20T00:06:54.170Z,1002.84
2018-12-20T00:07:54.141Z,1002.84
2018-12-20T00:08:54.161Z,1002.81
2018-12-20T00:09:54.241Z,1002.84
2018-12-20T00:10:54.106Z,1002.85
2018-12-20T00:11:54.116Z,1002.88
2018-12-20T00:12:54.089Z,1002.88
2018-12-20T00:13:54.076Z,1002.86
2018-12-20T00:14:54.069Z,1002.90
2018-12-20T00:15:54.168Z,1002.92
2018-12-20T00:16:54.082Z,1002.90
2018-12-20T00:17:54.053Z,1002.90
2018-12-20T00:18:54.153Z,1002.85
2018-12-20T00:19:54.042Z,1002.85
2018-12-20T00:20:54.098Z,1002.89
2018-12-20T00:21:54.024Z,1002.84
2018-12-20T00:22:53.981Z,1002.82
2018-12-20T00:23:54.077Z,1002.79
2018-12-20T00:24:53.955Z,1002.80
2018-12-20T00:25:54.031Z,1002.80
2018-12-20T00:26:54.034Z,1002.77
2018-12-20T00:27:53.995Z,1002.78
2018-12-20T00:28:53.911Z,1002.78
2018-12-20T00:29:53.996Z,1002.75
2018-12-20T00:30:53.959Z,1002.77
2018-12-20T00:31:53.895Z,1002.79
2018-12-20T00:32:53.889Z,1002.75
2018-12-20T00:33:54.003Z,1002.72
2018-12-20T00:34:53.901Z,1002.73
2018-12-20T00:35:53.857Z,1002.72
2018-12-20T00:36:53.928Z,1002.72
2018-12-20T00:37:53.813Z,1002.69
2018-12-20T00:38:53.973Z,1002.65
2018-12-20T00:39:53.787Z,1002.68
2018-12-20T00:40:53.870Z,1002.71
2018-12-20T00:41:53.885Z,1002.70
2018-12-20T00:42:53.756Z,1002.69
2018-12-20T00:43:53.843Z,1002.71
2018-12-20T00:44:53.730Z,1002.78
2018-12-20T00:45:53.726Z,1002.78
2018-12-20T00:46:53.784Z,1002.79
2018-12-20T00:47:53.706Z,1002.75
2018-12-20T00:48:53.739Z,1002.72
2018-12-20T00:49:53.729Z,1002.75
2018-12-20T00:50:53.830Z,1002.70
2018-12-20T00:51:53.658Z,1002.71
2018-12-20T00:52:53.687Z,1002.72
2018-12-20T00:53:53.645Z,1002.73
2018-12-20T00:54:53.693Z,1002.72
2018-12-20T00:55:53.839Z,1002.75
2018-12-20T00:56:53.739Z,1002.79
2018-12-20T00:57:53.642Z,1002.76
2018-12-20T00:58:53.747Z,1002.78
2018-12-20T00:59:53.654Z,1002.78
2018-12-20T01:00:53.558Z,1002.84
2018-12-20T01:01:53.639Z,1002.87
2018-12-20T01:02:55.411Z,1002.86
2018-12-20T01:03:53.542Z,1002.85
2018-12-20T01:04:53.514Z,1002.91
2018-12-20T01:05:53.640Z,1002.90
2018-12-20T01:06:53.486Z,1002.96
2018-12-20T01:07:53.561Z,1002.86
2018-12-20T01:08:53.625Z,1002.89
2018-12-20T01:09:53.493Z,1002.92
2018-12-20T01:10:53.447Z,1002.88
2018-12-20T01:11:53.431Z,1002.94
2018-12-20T01:12:53.560Z,1002.97
2018-12-20T01:13:53.417Z,1002.94
2018-12-20T01:14:53.542Z,1002.92
2018-12-20T01:15:53.413Z,1002.98
2018-12-20T01:16:53.487Z,1002.96
2018-12-20T01:17:53.362Z,1003.01
2018-12-20T01:18:53.425Z,1002.96
2018-12-20T01:19:53.472Z,1002.98
2018-12-20T01:20:53.332Z,1003.00
2018-12-20T01:21:53.339Z,1002.96
2018-12-20T01:22:53.450Z,1002.98
2018-12-20T01:23:53.441Z,1002.98
2018-12-20T01:24:53.349Z,1003.01
2018-12-20T01:25:53.290Z,1002.99
2018-12-20T01:26:53.339Z,1002.99
2018-12-20T01:27:53.458Z,1002.98
2018-12-20T01:28:53.245Z,1002.97
2018-12-20T01:29:53.448Z,1003.01
2018-12-20T01:30:53.261Z,1002.99
2018-12-20T01:31:53.336Z,1002.99
2018-12-20T01:32:53.348Z,1003.05
2018-12-20T01:33:53.216Z,1003.03
2018-12-20T01:34:53.194Z,1003.02
2018-12-20T01:35:53.209Z,1003.05
2018-12-20T01:36:53.158Z,1003.07
2018-12-20T01:37:53.155Z,1003.10
2018-12-20T01:38:53.204Z,1003.12
2018-12-20T01:39:53.252Z,1003.10
2018-12-20T01:40:53.113Z,1003.13
2018-12-20T01:41:53.105Z,1003.13
2018-12-20T01:42:53.140Z,1003.14
2018-12-20T01:43:53.102Z,1003.16
2018-12-20T01:44:53.612Z,1003.18
2018-12-20T01:45:53.177Z,1003.19
2018-12-20T01:46:53.084Z,1003.19
2018-12-20T01:47:53.105Z,1003.21
2018-12-20T01:48:53.069Z,1003.21
2018-12-20T01:49:53.049Z,1003.20
2018-12-20T01:50:53.017Z,1003.18
2018-12-20T01:51:52.992Z,1003.19
2018-12-20T01:52:52.980Z,1003.23
2018-12-20T01:53:53.186Z,1003.20
2018-12-20T01:54:53.093Z,1003.22
2018-12-20T01:55:52.968Z,1003.21
2018-12-20T01:56:52.946Z,1003.24
2018-12-20T01:57:52.921Z,1003.27
2018-12-20T01:58:53.143Z,1003.22
2018-12-20T01:59:52.933Z,1003.21
2018-12-20T02:00:52.923Z,1003.25
2018-12-20T02:01:52.891Z,1003.25
2018-12-20T02:02:52.868Z,1003.26
2018-12-20T02:03:52.999Z,1003.29
2018-12-20T02:04:52.859Z,1003.25
2018-12-20T02:05:52.843Z,1003.21
2018-12-20T02:06:52.937Z,1003.21
2018-12-20T02:07:52.881Z,1003.24
2018-12-20T02:08:52.962Z,1003.25
2018-12-20T02:09:53.000Z,1003.24
2018-12-20T02:10:52.804Z,1003.24
2018-12-20T02:11:52.794Z,1003.17
2018-12-20T02:12:52.763Z,1003.21
2018-12-20T02:13:52.751Z,1003.17
2018-12-20T02:14:52.877Z,1003.17
2018-12-20T02:15:52.809Z,1003.19
2018-12-20T02:16:52.743Z,1003.21
2018-12-20T02:17:52.832Z,1003.18
2018-12-20T02:18:52.893Z,1003.19
2018-12-20T02:19:52.799Z,1003.19
2018-12-20T02:20:52.840Z,1003.22
2018-12-20T02:21:52.747Z,1003.19
2018-12-20T02:22:52.835Z,1003.19
2018-12-20T02:23:52.715Z,1003.19
2018-12-20T02:24:52.672Z,1003.18
2018-12-20T02:25:52.650Z,1003.14
2018-12-20T02:26:52.789Z,1003.15
2018-12-20T02:27:52.597Z,1003.17
2018-12-20T02:28:52.646Z,1003.18
2018-12-20T02:29:52.652Z,1003.16
2018-12-20T02:30:52.662Z,1003.23
2018-12-20T02:31:52.611Z,1003.17
2018-12-20T02:32:52.610Z,1003.13
2018-12-20T02:33:52.573Z,1003.12
2018-12-20T02:34:52.588Z,1003.11
2018-12-20T02:35:52.508Z,1003.11
2018-12-20T02:36:52.549Z,1003.16
2018-12-20T02:37:52.701Z,1003.14
2018-12-20T02:38:52.702Z,1003.14
2018-12-20T02:39:52.698Z,1003.17
2018-12-20T02:40:52.464Z,1003.19
2018-12-20T02:41:52.732Z,1003.16
2018-12-20T02:42:52.437Z,1003.19
2018-12-20T02:43:52.484Z,1003.18
2018-12-20T02:44:52.618Z,1003.15
2018-12-20T02:45:52.626Z,1003.14
2018-12-20T02:46:52.387Z,1003.15
2018-12-20T02:47:52.405Z,1003.10
2018-12-20T02:48:52.535Z,1003.12
2018-12-20T02:49:52.383Z,1003.14
2018-12-20T02:50:52.493Z,1003.10
2018-12-20T02:51:52.644Z,1003.08
2018-12-20T02:52:52.322Z,1003.05
2018-12-20T02:53:52.495Z,1003.08
2018-12-20T02:54:52.519Z,1003.03
2018-12-20T02:55:52.299Z,1003.01
2018-12-20T02:56:52.287Z,1003.03
2018-12-20T02:57:52.494Z,1003.03
2018-12-20T02:58:52.466Z,1003.05
2018-12-20T02:59:52.588Z,1003.03
2018-12-20T03:00:52.255Z,1003.06
2018-12-20T03:01:52.392Z,1003.10
2018-12-20T03:02:52.218Z,1003.08
2018-12-20T03:03:52.207Z,1003.03
2018-12-20T03:04:52.204Z,1003.07
2018-12-20T03:05:52.421Z,1003.02
2018-12-20T03:06:52.185Z,1002.98
2018-12-20T03:07:52.373Z,1002.98
2018-12-20T03:08:52.148Z,1003.03
2018-12-20T03:09:52.295Z,1003.04
2018-12-20T03:10:52.127Z,1003.07
2018-12-20T03:11:52.137Z,1003.10
2018-12-20T03:12:52.122Z,1003.06
2018-12-20T03:13:52.180Z,1003.05
2018-12-20T03:14:52.419Z,1003.06
2018-12-20T03:15:52.089Z,1003.01
2018-12-20T03:16:52.065Z,1003.03
2018-12-20T03:17:52.061Z,1003.07
2018-12-20T03:18:52.040Z,1003.04
2018-12-20T03:19:52.232Z,1003.06
2018-12-20T03:20:52.066Z,1003.09
2018-12-20T03:21:52.015Z,1003.12
2018-12-20T03:22:52.000Z,1003.08
2018-12-20T03:23:51.986Z,1003.12
2018-12-20T03:24:52.043Z,1003.07
2018-12-20T03:25:52.042Z,1003.09
2018-12-20T03:26:52.011Z,1003.07
2018-12-20T03:27:51.999Z,1003.08
2018-12-20T03:28:52.165Z,1003.09
2018-12-20T03:29:51.945Z,1003.00
2018-12-20T03:30:52.482Z,1003.01
2018-12-20T03:31:51.950Z,1002.98
2018-12-20T03:32:51.895Z,1003.01
2018-12-20T03:33:51.873Z,1003.01
2018-12-20T03:34:51.866Z,1002.99
2018-12-20T03:35:51.953Z,1002.94
2018-12-20T03:36:52.069Z,1002.99
2018-12-20T03:37:51.915Z,1003.01
2018-12-20T03:38:51.821Z,1002.94
2018-12-20T03:39:51.890Z,1002.95
2018-12-20T03:40:51.878Z,1002.96
2018-12-20T03:41:51.831Z,1002.96
2018-12-20T03:42:51.892Z,1002.99
2018-12-20T03:43:51.770Z,1002.94
2018-12-20T03:44:51.767Z,1002.93
2018-12-20T03:45:51.800Z,1002.92
2018-12-20T03:46:51.755Z,1002.95
2018-12-20T03:47:51.752Z,1002.93
2018-12-20T03:48:51.835Z,1002.97
2018-12-20T03:49:51.725Z,1002.99
2018-12-20T03:50:51.987Z,1003.01
2018-12-20T03:51:51.805Z,1003.01
2018-12-20T03:52:51.858Z,1002.97
2018-12-20T03:53:51.677Z,1002.99
2018-12-20T03:54:51.672Z,1002.93
2018-12-20T03:55:51.695Z,1002.94
2018-12-20T03:56:51.895Z,1002.99
2018-12-20T03:57:51.611Z,1002.89
2018-12-20T03:58:51.623Z,1002.86
2018-12-20T03:59:51.614Z,1002.84
2018-12-20T04:00:51.671Z,1002.83
2018-12-20T04:01:51.670Z,1002.91
2018-12-20T04:02:51.614Z,1002.85
2018-12-20T04:03:51.664Z,1002.85
2018-12-20T04:04:51.550Z,1002.90
2018-12-20T04:05:51.556Z,1002.87
2018-12-20T04:06:51.706Z,1002.92
2018-12-20T04:07:51.507Z,1002.94
2018-12-20T04:08:51.498Z,1002.92
2018-12-20T04:09:51.485Z,1002.88
2018-12-20T04:10:51.507Z,1002.90
2018-12-20T04:11:51.471Z,1002.92
2018-12-20T04:12:51.444Z,1002.90
2018-12-20T04:13:51.468Z,1002.94
2018-12-20T04:14:51.485Z,1002.92
2018-12-20T04:15:51.725Z,1002.92
2018-12-20T04:16:51.615Z,1002.94
2018-12-20T04:17:51.426Z,1002.92
2018-12-20T04:18:51.410Z,1002.93
2018-12-20T04:19:51.368Z,1002.99
2018-12-20T04:20:51.386Z,1002.94
2018-12-20T04:21:51.434Z,1002.94
2018-12-20T04:22:51.461Z,1002.97
2018-12-20T04:23:51.454Z,1002.97
2018-12-20T04:24:51.316Z,1002.97
2018-12-20T04:25:51.312Z,1002.96
2018-12-20T04:26:51.317Z,1002.97
2018-12-20T04:27:51.351Z,1002.98
2018-12-20T04:28:51.331Z,1002.96
2018-12-20T04:29:51.466Z,1002.98
2018-12-20T04:30:51.285Z,1003.04
2018-12-20T04:31:51.471Z,1003.04
2018-12-20T04:32:51.229Z,1003.03
2018-12-20T04:33:51.224Z,1003.11
2018-12-20T04:34:51.315Z,1003.03
2018-12-20T04:35:51.212Z,1003.07
2018-12-20T04:36:51.193Z,1003.14
2018-12-20T04:37:51.221Z,1003.10
2018-12-20T04:38:51.168Z,1003.15
2018-12-20T04:39:51.364Z,1003.11
2018-12-20T04:40:51.165Z,1003.11
2018-12-20T04:41:51.262Z,1003.11
2018-12-20T04:42:51.252Z,1003.15
2018-12-20T04:43:51.101Z,1003.14
2018-12-20T04:44:51.227Z,1003.16
2018-12-20T04:45:51.559Z,1003.12
2018-12-20T04:46:51.304Z,1003.14
2018-12-20T04:47:51.294Z,1003.13
2018-12-20T04:48:51.209Z,1003.10
2018-12-20T04:49:51.258Z,1003.18
2018-12-20T04:50:51.040Z,1003.16
2018-12-20T04:51:51.057Z,1003.14
2018-12-20T04:52:51.267Z,1003.20
2018-12-20T04:53:51.043Z,1003.19
2018-12-20T04:54:51.263Z,1003.16
2018-12-20T04:55:50.983Z,1003.18
2018-12-20T04:56:50.963Z,1003.15
2018-12-20T04:57:50.946Z,1003.21
2018-12-20T04:58:50.949Z,1003.19
2018-12-20T04:59:51.002Z,1003.22
2018-12-20T05:00:51.031Z,1003.20
2018-12-20T05:01:50.924Z,1003.22
2018-12-20T05:02:50.911Z,1003.20
2018-12-20T05:03:50.894Z,1003.21
2018-12-20T05:04:50.887Z,1003.21
2018-12-20T05:05:50.858Z,1003.27
2018-12-20T05:06:50.862Z,1003.23
2018-12-20T05:07:50.851Z,1003.23
2018-12-20T05:08:50.849Z,1003.26
2018-12-20T05:09:50.840Z,1003.21
2018-12-20T05:10:51.026Z,1003.27
2018-12-20T05:11:51.149Z,1003.26
2018-12-20T05:12:50.799Z,1003.27
2018-12-20T05:13:50.783Z,1003.31
2018-12-20T05:14:50.868Z,1003.31
2018-12-20T05:15:56.017Z,1003.31
2018-12-20T05:16:51.749Z,1003.28
2018-12-20T05:17:50.856Z,1003.26
2018-12-20T05:18:50.741Z,1003.25
2018-12-20T05:19:50.745Z,1003.24
2018-12-20T05:20:50.708Z,1003.26
2018-12-20T05:21:50.826Z,1003.24
2018-12-20T05:22:50.671Z,1003.23
2018-12-20T05:23:50.671Z,1003.24
2018-12-20T05:24:50.663Z,1003.24
2018-12-20T05:25:50.686Z,1003.19
2018-12-20T05:26:50.739Z,1003.26
2018-12-20T05:27:50.650Z,1003.24
2018-12-20T05:28:50.906Z,1003.27
2018-12-20T05:29:50.773Z,1003.34
2018-12-20T05:30:50.653Z,1003.29
2018-12-20T05:31:50.586Z,1003.27
2018-12-20T05:32:50.786Z,1003.34
2018-12-20T05:33:50.721Z,1003.29
2018-12-20T05:34:50.758Z,1003.31
2018-12-20T05:35:50.550Z,1003.31
2018-12-20T05:36:50.548Z,1003.36
2018-12-20T05:37:50.552Z,1003.33
2018-12-20T05:38:50.497Z,1003.35
2018-12-20T05:39:50.493Z,1003.34
2018-12-20T05:40:50.481Z,1003.33
2018-12-20T05:41:50.677Z,1003.34
2018-12-20T05:42:50.599Z,1003.38
2018-12-20T05:43:50.709Z,1003.36
2018-12-20T05:44:50.548Z,1003.33
2018-12-20T05:45:50.458Z,1003.34
2018-12-20T05:46:50.415Z,1003.41
2018-12-20T05:47:50.402Z,1003.43
2018-12-20T05:48:50.475Z,1003.46
2018-12-20T05:49:50.395Z,1003.50
2018-12-20T05:50:50.378Z,1003.45
2018-12-20T05:51:50.413Z,1003.44
2018-12-20T05:52:50.356Z,1003.47
2018-12-20T05:53:50.352Z,1003.47
2018-12-20T05:54:50.344Z,1003.52
2018-12-20T05:55:50.313Z,1003.48
2018-12-20T05:56:50.417Z,1003.54
2018-12-20T05:57:50.545Z,1003.58
2018-12-20T05:58:50.432Z,1003.58
2018-12-20T05:59:50.276Z,1003.58
2018-12-20T06:00:50.254Z,1003.59
2018-12-20T06:01:50.251Z,1003.63
2018-12-20T06:02:50.385Z,1003.64
2018-12-20T06:03:50.329Z,1003.62
2018-12-20T06:04:50.338Z,1003.65
2018-12-20T06:05:50.429Z,1003.65
2018-12-20T06:06:50.213Z,1003.65
2018-12-20T06:07:50.184Z,1003.67
2018-12-20T06:08:50.403Z,1003.71
2018-12-20T06:09:50.461Z,1003.67
2018-12-20T06:10:50.148Z,1003.72
2018-12-20T06:11:50.152Z,1003.69
2018-12-20T06:12:50.284Z,1003.74
2018-12-20T06:13:50.361Z,1003.67
2018-12-20T06:14:50.103Z,1003.69
2018-12-20T06:15:50.275Z,1003.69
2018-12-20T06:16:50.346Z,1003.70
2018-12-20T06:17:50.069Z,1003.75
2018-12-20T06:18:50.279Z,1003.73
2018-12-20T06:19:50.133Z,1003.73
2018-12-20T06:20:50.131Z,1003.76
2018-12-20T06:21:50.164Z,1003.75
2018-12-20T06:22:50.011Z,1003.77
2018-12-20T06:23:50.007Z,1003.77
2018-12-20T06:24:49.981Z,1003.76
2018-12-20T06:25:49.973Z,1003.78
2018-12-20T06:26:49.984Z,1003.80
2018-12-20T06:27:49.953Z,1003.79
2018-12-20T06:28:49.938Z,1003.76
2018-12-20T06:29:49.924Z,1003.76
2018-12-20T06:30:49.924Z,1003.77
2018-12-20T06:31:49.924Z,1003.77
2018-12-20T06:32:49.895Z,1003.76
2018-12-20T06:33:49.880Z,1003.76
2018-12-20T06:34:49.884Z,1003.73
2018-12-20T06:35:49.865Z,1003.77
2018-12-20T06:36:49.865Z,1003.78
2018-12-20T06:37:49.849Z,1003.80
2018-12-20T06:38:49.838Z,1003.87
2018-12-20T06:39:49.860Z,1003.84
2018-12-20T06:40:49.805Z,1003.87
2018-12-20T06:41:49.920Z,1003.86
2018-12-20T06:42:49.780Z,1003.86
2018-12-20T06:43:49.780Z,1003.84
2018-12-20T06:44:49.784Z,1003.85
2018-12-20T06:45:49.749Z,1003.89
2018-12-20T06:46:49.748Z,1003.86
2018-12-20T06:47:49.729Z,1003.84
2018-12-20T06:48:49.728Z,1003.82
2018-12-20T06:49:49.704Z,1003.83
2018-12-20T06:50:49.690Z,1003.84
2018-12-20T06:51:49.706Z,1003.94
2018-12-20T06:52:49.678Z,1003.95
2018-12-20T06:53:49.656Z,1003.97
2018-12-20T06:54:49.651Z,1003.90
2018-12-20T06:55:49.653Z,1003.91
2018-12-20T06:56:49.628Z,1003.91
2018-12-20T06:57:49.621Z,1003.88
2018-12-20T06:58:49.605Z,1003.85
2018-12-20T06:59:49.590Z,1003.89
2018-12-20T07:00:49.592Z,1003.90
2018-12-20T07:01:49.567Z,1003.85
2018-12-20T07:02:49.573Z,1003.89
2018-12-20T07:03:49.545Z,1003.92
2018-12-20T07:04:49.533Z,1003.92
2018-12-20T07:05:49.523Z,1003.89
2018-12-20T07:06:49.521Z,1003.90
2018-12-20T07:07:49.515Z,1003.94
2018-12-20T07:08:49.487Z,1003.95
2018-12-20T07:09:49.486Z,1003.96
2018-12-20T07:10:49.466Z,1003.97
2018-12-20T07:11:49.464Z,1004.01
2018-12-20T07:12:49.466Z,1003.98
2018-12-20T07:13:49.548Z,1003.97
2018-12-20T07:14:49.422Z,1004.01
2018-12-20T07:15:49.424Z,1004.05
2018-12-20T07:16:49.402Z,1004.03
2018-12-20T07:17:49.409Z,1003.97
2018-12-20T07:18:49.384Z,1003.96
2018-12-20T07:19:49.369Z,1003.94
2018-12-20T07:20:49.372Z,1003.97
2018-12-20T07:21:49.345Z,1003.97
2018-12-20T07:22:49.346Z,1003.94
2018-12-20T07:23:49.351Z,1003.98
2018-12-20T07:24:49.319Z,1003.92
2018-12-20T07:25:49.343Z,1003.94
2018-12-20T07:26:49.300Z,1003.97
2018-12-20T07:27:49.285Z,1004.05
2018-12-20T07:28:49.270Z,1004.03
2018-12-20T07:29:49.272Z,1004.04
2018-12-20T07:30:49.250Z,1004.04
2018-12-20T07:31:49.231Z,1004.04
2018-12-20T07:32:49.318Z,1004.03
2018-12-20T07:33:49.211Z,1004.10
2018-12-20T07:34:49.213Z,1004.11
2018-12-20T07:35:49.213Z,1004.10
2018-12-20T07:36:49.201Z,1004.10
2018-12-20T07:37:49.180Z,1004.12
2018-12-20T07:38:49.174Z,1004.11
2018-12-20T07:39:49.144Z,1004.15
2018-12-20T07:40:49.138Z,1004.16
2018-12-20T07:41:49.134Z,1004.18
2018-12-20T07:42:49.127Z,1004.14
2018-12-20T07:43:49.096Z,1004.17
2018-12-20T07:44:49.089Z,1004.15
2018-12-20T07:45:49.216Z,1004.16
2018-12-20T07:46:49.084Z,1004.14
2018-12-20T07:47:49.074Z,1004.18
2018-12-20T07:48:49.044Z,1004.24
2018-12-20T07:49:49.032Z,1004.23
2018-12-20T07:50:49.019Z,1004.23
2018-12-20T07:51:49.015Z,1004.17
2018-12-20T07:52:49.032Z,1004.18
2018-12-20T07:53:49.015Z,1004.24
2018-12-20T07:54:48.999Z,1004.20
2018-12-20T07:55:48.972Z,1004.17
2018-12-20T07:56:48.952Z,1004.22
2018-12-20T07:57:48.960Z,1004.25
2018-12-20T07:58:48.948Z,1004.19
2018-12-20T07:59:48.922Z,1004.22
2018-12-20T08:00:48.908Z,1004.22
2018-12-20T08:01:48.904Z,1004.30
2018-12-20T08:02:49.405Z,1004.30
2018-12-20T08:03:48.878Z,1004.32
2018-12-20T08:04:48.912Z,1004.35
2018-12-20T08:05:48.863Z,1004.32
2018-12-20T08:06:48.872Z,1004.33
2018-12-20T08:07:48.844Z,1004.35
2018-12-20T08:08:48.831Z,1004.28
2018-12-20T08:09:48.811Z,1004.38
2018-12-20T08:10:48.795Z,1004.33
2018-12-20T08:11:48.801Z,1004.35
2018-12-20T08:12:48.786Z,1004.33
2018-12-20T08:13:48.763Z,1004.34
2018-12-20T08:14:48.774Z,1004.30
2018-12-20T08:15:50.629Z,1004.39
2018-12-20T08:16:48.731Z,1004.40
2018-12-20T08:17:48.744Z,1004.40
2018-12-20T08:18:48.713Z,1004.44
2018-12-20T08:19:48.701Z,1004.45
2018-12-20T08:20:48.708Z,1004.41
2018-12-20T08:21:48.683Z,1004.48
2018-12-20T08:22:48.690Z,1004.45
2018-12-20T08:23:48.650Z,1004.50
2018-12-20T08:24:48.641Z,1004.52
2018-12-20T08:25:48.639Z,1004.58
2018-12-20T08:26:48.619Z,1004.54
2018-12-20T08:27:48.623Z,1004.54
2018-12-20T08:28:48.619Z,1004.55
2018-12-20T08:29:48.585Z,1004.56
2018-12-20T08:30:48.589Z,1004.63
2018-12-20T08:31:48.572Z,1004.62
2018-12-20T08:32:48.564Z,1004.63
2018-12-20T08:33:48.562Z,1004.62
2018-12-20T08:34:48.545Z,1004.64
2018-12-20T08:35:48.519Z,1004.66
2018-12-20T08:36:48.523Z,1004.67
2018-12-20T08:37:48.509Z,1004.72
2018-12-20T08:38:48.494Z,1004.66
2018-12-20T08:39:48.488Z,1004.68
2018-12-20T08:40:48.466Z,1004.70
2018-12-20T08:41:48.451Z,1004.69
2018-12-20T08:42:48.462Z,1004.69
2018-12-20T08:43:48.443Z,1004.71
2018-12-20T08:44:48.439Z,1004.70
2018-12-20T08:45:48.422Z,1004.76
2018-12-20T08:46:54.320Z,1004.80
2018-12-20T08:47:49.419Z,1004.80
2018-12-20T08:48:48.385Z,1004.79
2018-12-20T08:49:48.376Z,1004.79
2018-12-20T08:50:48.357Z,1004.80
2018-12-20T08:51:49.124Z,1004.82
2018-12-20T08:52:48.353Z,1004.80
2018-12-20T08:53:48.344Z,1004.84
2018-12-20T08:54:48.316Z,1004.83
2018-12-20T08:55:48.302Z,1004.82
2018-12-20T08:56:48.316Z,1004.83
2018-12-20T08:57:48.300Z,1004.86
2018-12-20T08:58:48.298Z,1004.83
2018-12-20T08:59:48.269Z,1004.82
2018-12-20T09:00:48.297Z,1004.80
2018-12-20T09:01:48.231Z,1004.88
2018-12-20T09:02:48.224Z,1004.87
2018-12-20T09:03:48.221Z,1004.87
2018-12-20T09:04:48.245Z,1004.86
2018-12-20T09:05:48.213Z,1004.85
2018-12-20T09:06:48.177Z,1004.83
2018-12-20T09:07:48.167Z,1004.88
2018-12-20T09:08:48.176Z,1004.87
2018-12-20T09:09:48.142Z,1004.87
2018-12-20T09:10:48.149Z,1004.88
2018-12-20T09:11:48.119Z,1004.92
2018-12-20T09:12:48.115Z,1004.89
2018-12-20T09:13:48.108Z,1004.92
2018-12-20T09:14:48.088Z,1004.99
2018-12-20T09:15:48.195Z,1004.96
2018-12-20T09:16:48.067Z,1004.98
2018-12-20T09:17:48.094Z,1005.04
2018-12-20T09:18:48.050Z,1005.00
2018-12-20T09:19:48.040Z,1005.03
2018-12-20T09:20:48.024Z,1005.02
2018-12-20T09:21:48.017Z,1004.99
2018-12-20T09:22:48.068Z,1005.03
2018-12-20T09:23:48.397Z,1005.01
2018-12-20T09:24:48.046Z,1005.01
2018-12-20T09:25:47.996Z,1005.03
2018-12-20T09:26:48.016Z,1004.98
2018-12-20T09:27:47.947Z,1005.02
2018-12-20T09:28:47.964Z,1005.02
2018-12-20T09:29:47.920Z,1005.02
2018-12-20T09:30:47.910Z,1005.04
2018-12-20T09:31:47.903Z,1005.02
2018-12-20T09:32:47.951Z,1005.06
2018-12-20T09:33:47.910Z,1005.09
2018-12-20T09:34:47.868Z,1005.05
2018-12-20T09:35:47.854Z,1005.07
2018-12-20T09:36:47.858Z,1005.03
2018-12-20T09:37:47.831Z,1005.08
2018-12-20T09:38:47.848Z,1005.07
2018-12-20T09:39:47.817Z,1005.07
2018-12-20T09:40:47.798Z,1005.06
2018-12-20T09:41:47.788Z,1005.06
2018-12-20T09:42:47.784Z,1005.05
2018-12-20T09:43:47.788Z,1005.11
2018-12-20T09:44:47.791Z,1005.07
2018-12-20T09:45:47.750Z,1005.06
2018-12-20T09:46:47.743Z,1005.08
2018-12-20T09:47:47.722Z,1005.04
2018-12-20T09:48:47.721Z,1005.06
2018-12-20T09:49:47.701Z,1005.10
2018-12-20T09:50:47.723Z,1005.04
2018-12-20T09:51:47.676Z,1005.10
2018-12-20T09:52:47.670Z,1005.11
2018-12-20T09:53:47.670Z,1005.09
2018-12-20T09:54:47.653Z,1004.97
2018-12-20T09:55:47.645Z,1004.95
2018-12-20T09:56:47.623Z,1005.03
2018-12-20T09:57:47.631Z,1005.01
2018-12-20T09:58:47.614Z,1005.01
2018-12-20T09:59:47.590Z,1005.04
2018-12-20T10:00:47.577Z,1005.03
2018-12-20T10:01:47.590Z,1005.07
2018-12-20T10:02:47.623Z,1005.04
2018-12-20T10:03:47.578Z,1005.00
2018-12-20T10:04:47.555Z,1005.01
2018-12-20T10:05:47.536Z,1005.03
2018-12-20T10:06:47.514Z,1005.05
2018-12-20T10:07:47.526Z,1005.10
2018-12-20T10:08:47.500Z,1005.08
2018-12-20T10:09:47.481Z,1005.09
2018-12-20T10:10:47.466Z,1005.11
2018-12-20T10:11:47.460Z,1005.06
2018-12-20T10:12:47.456Z,1005.05
2018-12-20T10:13:47.442Z,1005.06
2018-12-20T10:14:47.435Z,1005.05
2018-12-20T10:15:47.414Z,1004.99
2018-12-20T10:16:47.402Z,1004.98
2018-12-20T10:17:47.408Z,1004.99
2018-12-20T10:18:47.397Z,1005.03
2018-12-20T10:19:47.368Z,1004.94
2018-12-20T10:20:47.355Z,1004.92
2018-12-20T10:21:47.345Z,1004.92
2018-12-20T10:22:47.336Z,1004.95
2018-12-20T10:23:47.335Z,1004.95
2018-12-20T10:24:47.315Z,1004.93
2018-12-20T10:25:47.305Z,1004.93
2018-12-20T10:26:47.293Z,1004.88
2018-12-20T10:27:47.314Z,1004.89
2018-12-20T10:28:47.277Z,1004.85
2018-12-20T10:29:47.269Z,1004.85
2018-12-20T10:30:47.255Z,1004.90
2018-12-20T10:31:47.241Z,1004.89
2018-12-20T10:32:47.221Z,1004.91
2018-12-20T10:33:47.223Z,1004.89
2018-12-20T10:34:47.204Z,1004.95
2018-12-20T10:35:47.195Z,1004.89
2018-12-20T10:36:47.179Z,1004.84
2018-12-20T10:37:47.188Z,1004.83
2018-12-20T10:38:47.184Z,1004.86
2018-12-20T10:39:47.171Z,1004.82
2018-12-20T10:40:47.234Z,1004.83
2018-12-20T10:41:47.134Z,1004.83
2018-12-20T10:42:47.216Z,1004.88
2018-12-20T10:43:47.394Z,1004.85
2018-12-20T10:44:47.182Z,1004.85
2018-12-20T10:45:47.076Z,1004.93
2018-12-20T10:46:47.068Z,1004.83
2018-12-20T10:47:47.058Z,1004.82
2018-12-20T10:48:47.065Z,1004.83
2018-12-20T10:49:47.046Z,1004.82
2018-12-20T10:50:47.024Z,1004.81
2018-12-20T10:51:47.019Z,1004.85
2018-12-20T10:52:47.003Z,1004.79
2018-12-20T10:53:46.994Z,1004.79
2018-12-20T10:54:46.992Z,1004.84
2018-12-20T10:55:46.968Z,1004.81
2018-12-20T10:56:46.962Z,1004.80
2018-12-20T10:57:46.954Z,1004.80
2018-12-20T10:58:46.937Z,1004.83
2018-12-20T10:59:46.937Z,1004.84
2018-12-20T11:00:46.926Z,1004.83
2018-12-20T11:01:46.905Z,1004.86
2018-12-20T11:02:46.890Z,1004.90
2018-12-20T11:03:47.885Z,1004.85
2018-12-20T11:04:46.885Z,1004.89
2018-12-20T11:05:46.860Z,1004.85
2018-12-20T11:06:46.849Z,1004.83
2018-12-20T11:07:46.834Z,1004.84
2018-12-20T11:08:46.829Z,1004.86
2018-12-20T11:09:46.831Z,1004.83
2018-12-20T11:10:46.811Z,1004.88
2018-12-20T11:11:46.793Z,1004.83
2018-12-20T11:12:46.777Z,1004.90
2018-12-20T11:13:46.766Z,1004.85
2018-12-20T11:14:46.768Z,1004.87
2018-12-20T11:15:46.754Z,1004.86
2018-12-20T11:16:46.743Z,1004.88
2018-12-20T11:17:46.729Z,1004.84
2018-12-20T11:18:46.720Z,1004.90
2018-12-20T11:19:46.714Z,1004.82
2018-12-20T11:20:46.689Z,1004.83
2018-12-20T11:21:46.681Z,1004.85
2018-12-20T11:22:46.694Z,1004.86
2018-12-20T11:23:46.658Z,1004.81
2018-12-20T11:24:46.689Z,1004.82
2018-12-20T11:25:46.643Z,1004.80
2018-12-20T11:26:46.665Z,1004.77
2018-12-20T11:27:46.615Z,1004.77
2018-12-20T11:28:46.620Z,1004.79
2018-12-20T11:29:46.603Z,1004.74
2018-12-20T11:30:46.586Z,1004.78
2018-12-20T11:31:46.567Z,1004.74
2018-12-20T11:32:46.560Z,1004.71
2018-12-20T11:33:46.550Z,1004.70
2018-12-20T11:34:46.558Z,1004.66
2018-12-20T11:35:46.524Z,1004.64
2018-12-20T11:36:46.520Z,1004.59
2018-12-20T11:37:46.500Z,1004.66
2018-12-20T11:38:46.504Z,1004.60
2018-12-20T11:39:46.488Z,1004.58
2018-12-20T11:40:46.496Z,1004.57
2018-12-20T11:41:46.475Z,1004.54
2018-12-20T11:42:46.446Z,1004.60
2018-12-20T11:43:46.435Z,1004.52
2018-12-20T11:44:46.436Z,1004.52
2018-12-20T11:45:46.436Z,1004.52
2018-12-20T11:46:46.429Z,1004.54
2018-12-20T11:47:46.457Z,1004.58
2018-12-20T11:48:46.380Z,1004.58
2018-12-20T11:49:46.406Z,1004.62
2018-12-20T11:50:46.367Z,1004.63
2018-12-20T11:51:46.364Z,1004.55
2018-12-20T11:52:46.337Z,1004.57
2018-12-20T11:53:46.348Z,1004.58
2018-12-20T11:54:46.326Z,1004.55
2018-12-20T11:55:46.334Z,1004.57
2018-12-20T11:56:46.294Z,1004.60
2018-12-20T11:57:46.297Z,1004.55
2018-12-20T11:58:46.317Z,1004.53
2018-12-20T11:59:46.286Z,1004.53
2018-12-20T12:00:46.248Z,1004.60
2018-12-20T12:01:46.244Z,1004.55
2018-12-20T12:02:46.241Z,1004.52
2018-12-20T12:03:46.253Z,1004.54
2018-12-20T12:04:46.223Z,1004.51
2018-12-20T12:05:46.191Z,1004.53